createdAt,value
2023-04-17T00:01:57.491Z,34.97
2023-04-17T00:04:23.746Z,34.90
2023-04-17T00:06:52.968Z,34.53
2023-04-17T00:09:19.208Z,34.63
2023-04-17T00:11:45.375Z,33.63
2023-04-17T00:14:11.505Z,34.60
2023-04-17T00:16:37.776Z,32.03
2023-04-17T00:19:04.595Z,33.50
2023-04-17T00:21:31.189Z,34.80
2023-04-17T00:23:57.534Z,34.83
2023-04-17T00:26:23.780Z,34.93
2023-04-17T00:28:51.041Z,34.13
2023-04-17T00:31:17.218Z,34.83
2023-04-17T00:33:43.375Z,34.63
2023-04-17T00:36:12.674Z,34.80
2023-04-17T00:38:38.796Z,35.00
2023-04-17T00:41:05.193Z,35.23
2023-04-17T00:43:31.685Z,34.20
2023-04-17T00:45:58.200Z,35.03
2023-04-17T00:48:24.703Z,34.13
2023-04-17T00:50:51.026Z,34.97
2023-04-17T00:53:17.904Z,33.77
2023-04-17T00:55:44.796Z,34.67
2023-04-17T00:58:11.255Z,34.00
2023-04-17T01:00:37.638Z,33.37
2023-04-17T01:03:04.453Z,33.80
2023-04-17T01:05:30.769Z,33.53
2023-04-17T01:07:57.404Z,31.90
2023-04-17T01:10:24.263Z,32.10
2023-04-17T01:13:01.263Z,30.27
2023-04-17T01:15:27.646Z,31.07
2023-04-17T01:17:53.983Z,32.00
2023-04-17T01:20:20.699Z,33.00
2023-04-17T01:22:48.710Z,31.00
2023-04-17T01:25:15.514Z,31.23
2023-04-17T01:27:41.943Z,32.30
2023-04-17T01:30:08.944Z,31.20
2023-04-17T01:32:35.722Z,33.93
2023-04-17T01:35:01.973Z,31.77
2023-04-17T01:37:28.135Z,34.00
2023-04-17T01:39:55.069Z,32.67
2023-04-17T01:42:22.028Z,32.27
2023-04-17T01:44:48.152Z,31.73
2023-04-17T01:47:14.332Z,33.27
2023-04-17T01:49:40.606Z,31.83
2023-04-17T01:52:06.898Z,31.60
2023-04-17T01:54:33.069Z,33.80
2023-04-17T01:56:59.252Z,33.27
2023-04-17T01:59:26.566Z,32.87
2023-04-17T02:01:53.334Z,32.10
2023-04-17T02:04:19.787Z,31.73
2023-04-17T02:06:46.114Z,33.63
2023-04-17T02:09:12.547Z,32.87
2023-04-17T02:11:39.006Z,34.13
2023-04-17T02:14:05.175Z,32.90
2023-04-17T02:16:32.025Z,32.73
2023-04-17T02:18:58.279Z,31.47
2023-04-17T02:21:26.092Z,31.83
2023-04-17T02:23:52.271Z,32.27
2023-04-17T02:26:18.614Z,32.40
2023-04-17T02:28:45.296Z,32.20
2023-04-17T02:31:11.993Z,32.20
2023-04-17T02:33:38.979Z,32.67
2023-04-17T02:36:06.060Z,31.83
2023-04-17T02:38:32.280Z,34.07
2023-04-17T02:40:58.460Z,33.63
2023-04-17T02:43:25.090Z,33.30
2023-04-17T02:45:51.244Z,32.03
2023-04-17T02:48:17.732Z,32.50
2023-04-17T02:50:44.482Z,33.77
2023-04-17T02:53:10.928Z,34.57
2023-04-17T02:55:37.062Z,32.67
2023-04-17T02:58:03.305Z,35.33
2023-04-17T03:00:29.598Z,33.43
2023-04-17T03:02:55.978Z,32.37
2023-04-17T03:05:22.740Z,33.57
2023-04-17T03:07:49.603Z,34.13
2023-04-17T03:10:15.914Z,35.00
2023-04-17T03:12:42.160Z,34.30
2023-04-17T03:15:09.158Z,34.27
2023-04-17T03:17:35.478Z,34.50
2023-04-17T03:20:02.326Z,33.43
2023-04-17T03:22:28.489Z,33.93
2023-04-17T03:24:55.219Z,34.50
2023-04-17T03:27:23.735Z,34.57
2023-04-17T03:29:50.255Z,34.93
2023-04-17T03:32:16.557Z,35.73
2023-04-17T03:34:42.796Z,36.87
2023-04-17T03:37:08.938Z,35.73
2023-04-17T03:39:35.199Z,36.47
2023-04-17T03:42:02.039Z,35.83
2023-04-17T03:44:28.294Z,36.07
2023-04-17T03:46:54.697Z,35.10
2023-04-17T03:49:20.967Z,36.20
2023-04-17T03:51:47.104Z,35.77
2023-04-17T03:54:13.274Z,36.57
2023-04-17T03:56:39.451Z,32.80
2023-04-17T03:59:06.230Z,38.43
2023-04-17T04:01:32.549Z,37.13
2023-04-17T04:03:58.867Z,36.43
2023-04-17T04:06:29.148Z,37.00
2023-04-17T04:08:55.975Z,37.03
2023-04-17T04:11:22.348Z,39.00
2023-04-17T04:13:48.524Z,37.10
2023-04-17T04:16:15.286Z,38.70
2023-04-17T04:18:42.543Z,36.97
2023-04-17T04:21:08.968Z,35.93
2023-04-17T04:23:37.211Z,36.47
2023-04-17T04:26:03.377Z,36.40
2023-04-17T04:28:29.702Z,34.77
2023-04-17T04:30:58.042Z,35.17
2023-04-17T04:33:24.974Z,35.43
2023-04-17T04:35:51.109Z,33.67
2023-04-17T04:38:17.785Z,32.13
2023-04-17T04:40:51.367Z,30.23
2023-04-17T04:43:18.562Z,30.97
2023-04-17T04:45:46.763Z,28.53
2023-04-17T04:48:12.883Z,30.37
2023-04-17T04:50:39.758Z,30.03
2023-04-17T04:53:05.952Z,29.37
2023-04-17T04:55:32.256Z,30.00
2023-04-17T04:57:58.404Z,30.20
2023-04-17T05:00:25.822Z,31.47
2023-04-17T05:02:52.128Z,31.83
2023-04-17T05:05:18.575Z,32.43
2023-04-17T05:07:45.390Z,31.23
2023-04-17T05:10:11.632Z,33.27
2023-04-17T05:12:37.749Z,33.70
2023-04-17T05:15:04.746Z,34.00
2023-04-17T05:17:30.974Z,32.60
2023-04-17T05:19:57.118Z,34.03
2023-04-17T05:22:23.306Z,33.17
2023-04-17T05:24:50.215Z,34.90
2023-04-17T05:27:16.374Z,34.90
2023-04-17T05:29:42.882Z,34.93
2023-04-17T05:32:09.214Z,35.43
2023-04-17T05:34:35.424Z,33.93
2023-04-17T05:37:02.449Z,33.73
2023-04-17T05:39:28.571Z,34.50
2023-04-17T05:41:55.660Z,34.77
2023-04-17T05:44:21.770Z,33.20
2023-04-17T05:46:47.889Z,34.67
2023-04-17T05:49:14.009Z,32.63
2023-04-17T05:51:40.401Z,33.23
2023-04-17T05:54:06.683Z,31.83
2023-04-17T05:56:33.291Z,31.77
2023-04-17T05:59:00.072Z,30.00
2023-04-17T06:01:26.256Z,28.57
2023-04-17T06:03:52.997Z,27.57
2023-04-17T06:06:19.635Z,26.80
2023-04-17T06:08:45.794Z,26.77
2023-04-17T06:11:12.089Z,25.30
2023-04-17T06:13:38.281Z,25.33
2023-04-17T06:16:05.408Z,25.27
2023-04-17T06:18:31.608Z,25.27
2023-04-17T06:20:57.954Z,25.47
2023-04-17T06:23:24.125Z,24.90
2023-04-17T06:25:50.291Z,24.93
2023-04-17T06:28:16.457Z,24.93
2023-04-17T06:30:42.730Z,24.57
2023-04-17T06:33:09.585Z,23.83
2023-04-17T06:35:36.955Z,23.83
2023-04-17T06:38:03.069Z,24.60
2023-04-17T06:40:29.198Z,24.60
2023-04-17T06:42:55.321Z,24.43
2023-04-17T06:45:21.433Z,24.90
2023-04-17T06:47:47.798Z,25.23
2023-04-17T06:50:16.069Z,24.93
2023-04-17T06:52:42.430Z,24.47
2023-04-17T06:55:09.408Z,25.40
2023-04-17T06:57:36.044Z,25.47
2023-04-17T07:00:02.756Z,24.67
2023-04-17T07:02:29.192Z,24.50
2023-04-17T07:04:55.563Z,23.57
2023-04-17T07:07:22.371Z,24.43
2023-04-17T07:09:48.680Z,23.93
2023-04-17T07:12:14.912Z,23.13
2023-04-17T07:14:41.507Z,23.17
2023-04-17T07:17:07.652Z,22.37
2023-04-17T07:19:33.925Z,22.50
2023-04-17T07:22:00.203Z,21.73
2023-04-17T07:24:27.057Z,22.37
2023-04-17T07:26:53.307Z,22.20
2023-04-17T07:29:19.532Z,22.23
2023-04-17T07:31:45.799Z,22.63
2023-04-17T07:34:11.995Z,22.10
2023-04-17T07:36:38.149Z,21.23
2023-04-17T07:39:05.617Z,22.47
2023-04-17T07:41:32.361Z,22.30
2023-04-17T07:43:59.197Z,22.23
2023-04-17T07:46:25.675Z,22.97
2023-04-17T07:48:52.001Z,22.63
2023-04-17T07:51:18.120Z,23.00
2023-04-17T07:53:44.470Z,23.83
2023-04-17T07:56:12.791Z,22.60
2023-04-17T07:58:39.557Z,23.47
2023-04-17T08:01:05.688Z,21.90
2023-04-17T08:03:32.063Z,21.80
2023-04-17T08:05:58.486Z,23.10
2023-04-17T08:08:25.001Z,23.00
2023-04-17T08:10:51.406Z,22.50
2023-04-17T08:13:17.577Z,22.00
2023-04-17T08:15:44.758Z,21.83
2023-04-17T08:18:11.203Z,21.77
2023-04-17T08:20:37.315Z,22.93
2023-04-17T08:23:04.286Z,22.40
2023-04-17T08:25:30.884Z,22.53
2023-04-17T08:27:57.058Z,21.13
2023-04-17T08:30:23.486Z,21.80
2023-04-17T08:32:51.380Z,20.40
2023-04-17T08:35:17.698Z,21.30
2023-04-17T08:37:45.950Z,20.80
2023-04-17T08:40:13.177Z,20.57
2023-04-17T08:42:40.865Z,20.70
2023-04-17T08:45:08.839Z,20.40
2023-04-17T08:47:35.175Z,20.87
2023-04-17T08:50:08.671Z,21.03
2023-04-17T08:52:38.301Z,19.93
2023-04-17T08:55:05.421Z,20.83
2023-04-17T08:57:31.602Z,20.17
2023-04-17T08:59:57.736Z,20.33
2023-04-17T09:02:26.833Z,19.97
2023-04-17T09:04:54.104Z,19.33
2023-04-17T09:07:28.514Z,20.13
2023-04-17T09:09:55.453Z,20.57
2023-04-17T09:12:22.575Z,20.53
2023-04-17T09:14:48.915Z,19.80
2023-04-17T09:17:16.766Z,19.13
2023-04-17T09:20:05.744Z,19.37
2023-04-17T09:22:33.214Z,17.30
2023-04-17T09:24:59.369Z,17.53
2023-04-17T09:27:26.953Z,17.70
2023-04-17T09:29:58.172Z,17.63
2023-04-17T09:32:25.294Z,18.53
2023-04-17T09:34:52.327Z,18.27
2023-04-17T09:37:18.831Z,18.63
2023-04-17T09:39:56.818Z,18.67
2023-04-17T09:42:23.391Z,18.73
2023-04-17T09:44:49.604Z,17.90
2023-04-17T09:47:17.056Z,19.13
2023-04-17T09:49:49.278Z,19.13
2023-04-17T09:52:16.139Z,19.93
2023-04-17T09:54:43.185Z,18.93
2023-04-17T09:57:10.803Z,18.47
2023-04-17T09:59:38.500Z,17.00
2023-04-17T10:02:07.777Z,15.90
2023-04-17T10:04:35.235Z,16.33
2023-04-17T10:07:02.393Z,13.57
2023-04-17T10:09:28.498Z,14.80
2023-04-17T10:11:55.726Z,13.73
2023-04-17T10:14:25.433Z,13.33
2023-04-17T10:16:52.234Z,15.30
2023-04-17T10:19:29.848Z,15.23
2023-04-17T10:22:30.468Z,15.93
2023-04-17T10:25:19.051Z,15.37
2023-04-17T10:27:48.402Z,14.07
2023-04-17T10:30:15.444Z,14.67
2023-04-17T10:32:44.015Z,15.53
2023-04-17T10:35:37.059Z,14.50
2023-04-17T10:38:06.976Z,14.00
2023-04-17T10:40:34.338Z,14.10
2023-04-17T10:43:05.747Z,14.63
2023-04-17T10:45:53.933Z,12.67
2023-04-17T10:48:21.705Z,12.50
2023-04-17T10:50:47.946Z,12.73
2023-04-17T10:53:38.617Z,12.33
2023-04-17T10:56:05.248Z,12.50
2023-04-17T10:58:32.127Z,12.57
2023-04-17T11:01:02.509Z,11.50
2023-04-17T11:03:30.184Z,12.10
2023-04-17T11:05:58.630Z,11.93
2023-04-17T11:08:24.882Z,11.27
2023-04-17T11:10:52.373Z,10.67
2023-04-17T11:13:18.517Z,9.13
2023-04-17T11:15:44.692Z,9.10
2023-04-17T11:18:12.232Z,9.60
2023-04-17T11:20:38.461Z,9.57
2023-04-17T11:23:06.004Z,8.70
2023-04-17T11:25:32.997Z,8.70
2023-04-17T11:28:00.882Z,8.57
2023-04-17T11:30:28.164Z,8.17
2023-04-17T11:32:54.358Z,8.77
2023-04-17T11:35:27.464Z,9.80
2023-04-17T11:38:11.119Z,9.80
2023-04-17T11:40:42.030Z,9.13
2023-04-17T11:43:08.682Z,8.57
2023-04-17T11:45:35.970Z,9.33
2023-04-17T11:48:02.931Z,8.57
2023-04-17T11:50:30.555Z,8.40
2023-04-17T11:52:57.897Z,9.27
2023-04-17T11:55:29.448Z,9.13
2023-04-17T11:57:56.333Z,8.43
2023-04-17T12:00:26.751Z,8.57
2023-04-17T12:02:52.994Z,8.70
2023-04-17T12:05:19.872Z,8.23
2023-04-17T12:07:46.823Z,7.90
2023-04-17T12:10:12.996Z,7.77
2023-04-17T12:12:39.216Z,8.97
2023-04-17T12:15:06.489Z,8.00
2023-04-17T12:17:32.696Z,7.13
2023-04-17T12:20:03.057Z,6.90
2023-04-17T12:22:29.607Z,6.50
2023-04-17T12:24:56.386Z,6.97
2023-04-17T12:27:22.512Z,7.23
2023-04-17T12:29:49.649Z,6.30
2023-04-17T12:32:15.834Z,7.10
2023-04-17T12:34:41.993Z,7.70
2023-04-17T12:37:08.454Z,6.87
2023-04-17T12:39:34.694Z,6.63
2023-04-17T12:42:01.460Z,6.80
2023-04-17T12:44:27.599Z,6.40
2023-04-17T12:46:53.775Z,6.87
2023-04-17T12:49:20.068Z,6.97
2023-04-17T12:51:46.210Z,6.67
2023-04-17T12:54:12.438Z,7.20
2023-04-17T12:56:38.740Z,6.77
2023-04-17T12:59:05.481Z,6.73
2023-04-17T13:01:31.710Z,6.83
2023-04-17T13:03:58.049Z,6.43
2023-04-17T13:06:24.814Z,6.77
2023-04-17T13:08:51.131Z,6.60
2023-04-17T13:11:17.304Z,6.50
2023-04-17T13:13:43.448Z,6.57
2023-04-17T13:16:10.324Z,6.80
2023-04-17T13:18:36.766Z,6.30
2023-04-17T13:21:03.078Z,5.57
2023-04-17T13:23:29.264Z,6.60
2023-04-17T13:25:55.434Z,6.77
2023-04-17T13:28:21.644Z,6.97
2023-04-17T13:30:47.806Z,6.40
2023-04-17T13:33:15.010Z,7.40
2023-04-17T13:35:41.219Z,6.43
2023-04-17T13:38:07.413Z,6.00
2023-04-17T13:40:33.740Z,6.20
2023-04-17T13:42:59.929Z,6.67
2023-04-17T13:45:26.199Z,6.10
2023-04-17T13:47:52.627Z,6.67
2023-04-17T13:50:20.000Z,6.60
2023-04-17T13:52:46.215Z,6.70
2023-04-17T13:55:13.808Z,6.83
2023-04-17T13:57:39.963Z,6.57
2023-04-17T14:00:07.562Z,6.80
2023-04-17T14:02:35.383Z,6.97
2023-04-17T14:05:02.053Z,6.77
2023-04-17T14:07:29.563Z,6.67
2023-04-17T14:09:55.693Z,6.57
2023-04-17T14:12:21.820Z,6.07
2023-04-17T14:14:47.962Z,6.23
2023-04-17T14:17:14.100Z,6.40
2023-04-17T14:19:40.359Z,7.33
2023-04-17T14:22:06.467Z,7.30
2023-04-17T14:24:33.211Z,7.53
2023-04-17T14:27:00.878Z,6.73
2023-04-17T14:29:27.053Z,6.80
2023-04-17T14:31:53.846Z,7.00
2023-04-17T14:34:20.063Z,6.37
2023-04-17T14:36:46.779Z,6.33
2023-04-17T14:39:13.080Z,6.07
2023-04-17T14:41:40.103Z,5.93
2023-04-17T14:44:06.377Z,6.47
2023-04-17T14:46:32.861Z,6.70
2023-04-17T14:48:59.024Z,7.27
2023-04-17T14:51:26.197Z,7.53
2023-04-17T14:53:53.086Z,8.13
2023-04-17T14:56:20.781Z,7.83
2023-04-17T14:58:47.553Z,7.53
2023-04-17T15:01:13.950Z,7.80
2023-04-17T15:03:40.463Z,6.70
2023-04-17T15:06:08.061Z,6.77
2023-04-17T15:08:34.307Z,7.23
2023-04-17T15:11:00.456Z,6.33
2023-04-17T15:13:26.617Z,6.80
2023-04-17T15:15:54.356Z,8.57
2023-04-17T15:18:20.467Z,6.63
2023-04-17T15:20:46.992Z,6.97
2023-04-17T15:23:13.135Z,7.30
2023-04-17T15:25:39.313Z,7.10
2023-04-17T15:28:05.475Z,7.80
2023-04-17T15:30:31.612Z,8.00
2023-04-17T15:32:58.370Z,8.10
2023-04-17T15:35:24.511Z,7.83
2023-04-17T15:37:50.799Z,7.47
2023-04-17T15:40:16.903Z,7.30
2023-04-17T15:42:43.254Z,7.30
2023-04-17T15:45:09.996Z,7.53
2023-04-17T15:47:36.186Z,7.27
2023-04-17T15:50:03.268Z,7.73
2023-04-17T15:52:29.379Z,7.40
2023-04-17T15:54:55.489Z,7.70
2023-04-17T15:57:22.234Z,8.07
2023-04-17T15:59:48.401Z,7.30
2023-04-17T16:02:14.640Z,7.50
2023-04-17T16:04:42.946Z,6.90
2023-04-17T16:07:11.165Z,7.53
2023-04-17T16:09:38.861Z,7.63
2023-04-17T16:12:07.880Z,8.07
2023-04-17T16:14:34.486Z,7.83
2023-04-17T16:17:00.683Z,7.20
2023-04-17T16:19:26.803Z,7.20
2023-04-17T16:21:52.986Z,7.83
2023-04-17T16:24:19.938Z,7.07
2023-04-17T16:26:46.037Z,7.43
2023-04-17T16:29:12.460Z,7.40
2023-04-17T16:31:38.698Z,7.33
2023-04-17T16:34:04.847Z,7.50
2023-04-17T16:36:32.806Z,7.80
2023-04-17T16:39:01.594Z,7.37
2023-04-17T16:41:30.841Z,7.27
2023-04-17T16:43:57.353Z,7.20
2023-04-17T16:46:31.746Z,7.73
2023-04-17T16:49:09.274Z,7.10
2023-04-17T16:51:36.843Z,7.53
2023-04-17T16:54:03.134Z,7.10
2023-04-17T16:56:30.103Z,7.43
2023-04-17T16:58:56.322Z,6.57
2023-04-17T17:01:22.513Z,7.13
2023-04-17T17:03:49.204Z,6.70
2023-04-17T17:06:15.440Z,6.73
2023-04-17T17:08:45.711Z,6.50
2023-04-17T17:11:12.281Z,7.00
2023-04-17T17:13:39.076Z,6.53
2023-04-17T17:16:05.216Z,6.53
2023-04-17T17:18:31.324Z,6.60
2023-04-17T17:20:59.245Z,6.90
2023-04-17T17:23:25.678Z,6.10
2023-04-17T17:25:51.796Z,6.57
2023-04-17T17:28:17.966Z,6.77
2023-04-17T17:30:44.914Z,6.53
2023-04-17T17:33:11.493Z,6.10
2023-04-17T17:35:38.391Z,6.10
2023-04-17T17:38:04.956Z,5.50
2023-04-17T17:40:31.112Z,6.50
2023-04-17T17:42:57.625Z,6.57
2023-04-17T17:45:23.986Z,6.43
2023-04-17T17:47:50.761Z,6.13
2023-04-17T17:50:17.974Z,6.10
2023-04-17T17:52:44.149Z,5.87
2023-04-17T17:55:13.201Z,6.50
2023-04-17T17:57:48.842Z,6.70
2023-04-17T18:00:16.797Z,6.47
2023-04-17T18:02:43.527Z,6.00
2023-04-17T18:05:10.534Z,6.60
2023-04-17T18:07:36.638Z,6.33
2023-04-17T18:10:03.131Z,6.63
2023-04-17T18:12:29.287Z,6.53
2023-04-17T18:14:55.568Z,6.03
2023-04-17T18:17:21.693Z,6.50
2023-04-17T18:19:47.931Z,5.80
2023-04-17T18:22:14.693Z,6.90
2023-04-17T18:24:40.842Z,5.93
2023-04-17T18:27:07.050Z,6.60
2023-04-17T18:29:33.200Z,6.33
2023-04-17T18:31:59.336Z,6.63
2023-04-17T18:34:25.473Z,6.70
2023-04-17T18:36:51.890Z,7.03
2023-04-17T18:39:19.252Z,7.53
2023-04-17T18:41:45.549Z,5.90
2023-04-17T18:44:11.855Z,7.00
2023-04-17T18:46:38.168Z,7.03
2023-04-17T18:49:04.383Z,7.33
2023-04-17T18:51:30.758Z,6.83
2023-04-17T18:53:57.086Z,6.90
2023-04-17T18:56:24.206Z,6.80
2023-04-17T18:58:50.460Z,7.00
2023-04-17T19:01:16.952Z,6.60
2023-04-17T19:03:43.180Z,6.80
2023-04-17T19:06:09.348Z,7.17
2023-04-17T19:08:35.802Z,6.70
2023-04-17T19:11:01.923Z,7.77
2023-04-17T19:13:28.719Z,7.60
2023-04-17T19:15:55.020Z,7.70
2023-04-17T19:18:21.262Z,6.93
2023-04-17T19:20:47.509Z,8.20
2023-04-17T19:23:13.677Z,7.53
2023-04-17T19:25:41.588Z,6.77
2023-04-17T19:28:07.855Z,7.00
2023-04-17T19:30:34.741Z,6.93
2023-04-17T19:33:00.886Z,7.37
2023-04-17T19:35:27.245Z,7.03
2023-04-17T19:37:53.503Z,7.33
2023-04-17T19:40:25.058Z,7.37
2023-04-17T19:42:51.719Z,6.97
2023-04-17T19:45:19.821Z,7.27
2023-04-17T19:47:53.757Z,7.57
2023-04-17T19:50:19.949Z,7.73
2023-04-17T19:52:46.078Z,7.87
2023-04-17T19:55:12.208Z,7.53
2023-04-17T19:57:38.748Z,7.70
2023-04-17T20:00:06.574Z,7.27
2023-04-17T20:02:33.726Z,7.37
2023-04-17T20:05:00.553Z,7.80
2023-04-17T20:07:26.707Z,7.50
2023-04-17T20:09:52.891Z,8.33
2023-04-17T20:12:19.877Z,7.67
2023-04-17T20:14:46.022Z,7.77
2023-04-17T20:17:12.344Z,8.03
2023-04-17T20:19:38.631Z,8.23
2023-04-17T20:22:05.373Z,8.00
2023-04-17T20:24:31.740Z,7.90
2023-04-17T20:26:58.245Z,7.30
2023-04-17T20:29:26.270Z,7.23
2023-04-17T20:31:52.546Z,7.47
2023-04-17T20:34:18.913Z,7.83
2023-04-17T20:36:45.076Z,8.00
2023-04-17T20:39:12.136Z,9.23
2023-04-17T20:41:39.524Z,7.83
2023-04-17T20:44:06.055Z,7.27
2023-04-17T20:46:32.334Z,7.70
2023-04-17T20:48:58.466Z,8.23
2023-04-17T20:51:25.711Z,7.90
2023-04-17T20:53:51.844Z,8.23
2023-04-17T20:56:19.157Z,8.67
2023-04-17T20:58:45.308Z,8.50
2023-04-17T21:01:11.571Z,8.43
2023-04-17T21:03:37.696Z,8.07
2023-04-17T21:06:04.348Z,8.37
2023-04-17T21:08:30.585Z,8.73
2023-04-17T21:10:56.716Z,9.07
2023-04-17T21:13:23.540Z,8.90
2023-04-17T21:15:49.766Z,9.07
2023-04-17T21:18:16.080Z,8.93
2023-04-17T21:20:42.182Z,8.90
2023-04-17T21:23:08.415Z,8.93
2023-04-17T21:25:35.010Z,8.90
2023-04-17T21:28:01.285Z,9.23
2023-04-17T21:30:28.098Z,9.87
2023-04-17T21:32:54.305Z,9.37
2023-04-17T21:35:20.597Z,9.30
2023-04-17T21:37:46.731Z,9.13
2023-04-17T21:40:13.656Z,8.87
2023-04-17T21:42:39.813Z,9.77
2023-04-17T21:45:07.338Z,8.83
2023-04-17T21:47:34.728Z,8.60
2023-04-17T21:50:00.852Z,9.10
2023-04-17T21:52:27.045Z,8.87
2023-04-17T21:54:53.186Z,8.80
2023-04-17T21:57:19.311Z,9.37
2023-04-17T21:59:46.189Z,9.20
2023-04-17T22:02:12.425Z,8.77
2023-04-17T22:04:39.408Z,9.27
2023-04-17T22:07:07.743Z,9.00
2023-04-17T22:09:33.849Z,9.40
2023-04-17T22:12:00.861Z,9.70
2023-04-17T22:14:26.981Z,9.20
2023-04-17T22:16:53.161Z,9.10
2023-04-17T22:19:19.305Z,9.73
2023-04-17T22:21:46.109Z,9.60
2023-04-17T22:24:12.427Z,9.97
2023-04-17T22:26:39.070Z,9.00
2023-04-17T22:29:05.179Z,9.20
2023-04-17T22:31:31.359Z,8.77
2023-04-17T22:33:57.653Z,9.87
2023-04-17T22:36:23.789Z,8.73
2023-04-17T22:38:50.722Z,9.23
2023-04-17T22:41:16.889Z,8.70
2023-04-17T22:43:43.043Z,9.13
2023-04-17T22:46:09.394Z,9.03
2023-04-17T22:48:36.054Z,8.50
2023-04-17T22:51:02.689Z,8.37
2023-04-17T22:53:28.851Z,8.10
2023-04-17T22:56:05.970Z,7.90
2023-04-17T22:58:33.069Z,7.63
2023-04-17T23:00:59.558Z,8.87
2023-04-17T23:03:25.770Z,8.03
2023-04-17T23:05:52.785Z,8.00
2023-04-17T23:08:18.893Z,8.97
2023-04-17T23:10:45.050Z,8.40
2023-04-17T23:13:11.923Z,7.73
2023-04-17T23:15:38.919Z,8.43
2023-04-17T23:18:05.519Z,7.90
2023-04-17T23:20:32.000Z,8.00
2023-04-17T23:22:58.174Z,8.10
2023-04-17T23:25:24.359Z,7.93
2023-04-17T23:27:50.564Z,7.63
2023-04-17T23:30:17.821Z,7.47
2023-04-17T23:32:44.318Z,7.77
2023-04-17T23:35:10.465Z,8.50
2023-04-17T23:37:36.604Z,7.53
2023-04-17T23:40:03.054Z,7.70
2023-04-17T23:42:29.204Z,7.70
2023-04-17T23:44:56.200Z,7.90
2023-04-17T23:47:23.424Z,7.70
2023-04-17T23:49:49.589Z,6.87
2023-04-17T23:52:15.793Z,7.67
2023-04-17T23:54:42.112Z,8.07
2023-04-17T23:57:08.236Z,7.40
2023-04-17T23:59:35.013Z,6.77
